Time;durP1;ratioP1;P1;durP2;ratioP2;P2;SDS_P1;SDS_P2;PMS_P1;PMS_P2;Temp;Humidity;BMP_temperature;BMP_pressure;BME280_temperature;BME280_humidity;BME280_pressure;Samples;Min_cycle;Max_cycle;Signal;HPM_P1;HPM_P2
2024/02/18 00:02:07;;;;;;;3.47;1.13;;;;;;;;;;5073205;28;20444;-66
2024/02/18 00:04:34;;;;;;;5.43;1.90;;;;;;;;;;5073124;28;20462;-66
2024/02/18 00:07:02;;;;;;;5.30;1.73;;;;;;;;;;5073355;28;20463;-66
2024/02/18 00:09:29;;;;;;;7.03;1.60;;;;;;;;;;5073292;28;20440;-66
2024/02/18 00:11:58;;;;;;;4.17;2.00;;;;;;;;;;5073434;28;20486;-66
2024/02/18 00:14:25;;;;;;;5.23;1.87;;;;;;;;;;5073084;28;20532;-66
2024/02/18 00:16:52;;;;;;;3.60;1.37;;;;;;;;;;5073051;28;20501;-66
2024/02/18 00:19:19;;;;;;;4.90;1.97;;;;;;;;;;5072833;28;20486;-66
2024/02/18 00:21:46;;;;;;;3.13;1.70;;;;;;;;;;5073406;28;20439;-66
2024/02/18 00:24:13;;;;;;;3.70;1.27;;;;;;;;;;5073044;28;20444;-66
2024/02/18 00:26:40;;;;;;;4.27;1.60;;;;;;;;;;5073029;28;20444;-66
2024/02/18 00:29:09;;;;;;;2.63;1.37;;;;;;;;;;5072880;28;20454;-66
2024/02/18 00:31:37;;;;;;;2.87;1.60;;;;;;;;;;5072854;28;20479;-66
2024/02/18 00:34:04;;;;;;;3.00;1.20;;;;;;;;;;5073064;28;20443;-66
2024/02/18 00:36:30;;;;;;;1.80;1.13;;;;;;;;;;5073024;28;20505;-66
2024/02/18 00:38:57;;;;;;;2.37;1.63;;;;;;;;;;5072661;28;20483;-66
2024/02/18 00:41:24;;;;;;;4.53;1.87;;;;;;;;;;5072826;28;20555;-66
2024/02/18 00:43:51;;;;;;;3.50;1.40;;;;;;;;;;5072792;28;20452;-66
2024/02/18 00:46:19;;;;;;;2.70;1.50;;;;;;;;;;5072650;28;20530;-66
2024/02/18 00:48:46;;;;;;;1.83;1.40;;;;;;;;;;5072936;28;20531;-66
2024/02/18 00:51:13;;;;;;;1.90;1.60;;;;;;;;;;5072860;28;20856;-66
2024/02/18 00:53:40;;;;;;;4.87;1.67;;;;;;;;;;5072781;28;20443;-66
2024/02/18 00:56:09;;;;;;;1.87;1.40;;;;;;;;;;5072787;28;20530;-66
2024/02/18 00:58:36;;;;;;;8.57;1.90;;;;;;;;;;5072565;28;20467;-65
2024/02/18 01:01:03;;;;;;;3.60;1.40;;;;;;;;;;5072842;28;20534;-66
2024/02/18 01:03:31;;;;;;;3.10;1.57;;;;;;;;;;5072732;28;20454;-66
2024/02/18 01:05:58;;;;;;;4.87;1.97;;;;;;;;;;5072697;28;20505;-66
2024/02/18 01:08:25;;;;;;;6.00;1.70;;;;;;;;;;5072716;28;20446;-66
2024/02/18 01:10:52;;;;;;;4.57;2.90;;;;;;;;;;5072533;28;20530;-66
2024/02/18 01:13:19;;;;;;;6.00;3.20;;;;;;;;;;5072409;28;20938;-66
2024/02/18 01:15:46;;;;;;;5.00;2.60;;;;;;;;;;5072607;28;20446;-66
2024/02/18 01:18:13;;;;;;;2.90;1.93;;;;;;;;;;5072604;28;20447;-66
2024/02/18 01:20:41;;;;;;;7.23;2.37;;;;;;;;;;5072431;28;20566;-66
2024/02/18 01:23:08;;;;;;;4.17;2.47;;;;;;;;;;5072439;28;20538;-66
2024/02/18 01:25:35;;;;;;;2.83;2.33;;;;;;;;;;5072388;28;20453;-66
2024/02/18 01:28:02;;;;;;;6.00;2.60;;;;;;;;;;5072266;28;20450;-66
2024/02/18 01:30:29;;;;;;;2.47;2.27;;;;;;;;;;5072555;28;20477;-66
2024/02/18 01:32:56;;;;;;;2.93;2.47;;;;;;;;;;5072429;28;20530;-66
2024/02/18 01:35:23;;;;;;;2.37;2.20;;;;;;;;;;5072374;28;20810;-66
2024/02/18 01:37:51;;;;;;;4.90;1.73;;;;;;;;;;5072320;28;21014;-66
2024/02/18 01:40:18;;;;;;;3.37;1.50;;;;;;;;;;5072107;28;20491;-66
2024/02/18 01:42:45;;;;;;;2.77;1.20;;;;;;;;;;5075752;28;20447;-66
2024/02/18 01:45:12;;;;;;;4.57;1.73;;;;;;;;;;5075866;28;20447;-66
2024/02/18 01:47:40;;;;;;;4.23;1.10;;;;;;;;;;5075873;28;20546;-66
2024/02/18 01:50:08;;;;;;;1.53;1.30;;;;;;;;;;5075703;28;20458;-66
2024/02/18 01:52:36;;;;;;;4.57;2.03;;;;;;;;;;5075658;28;20539;-66
2024/02/18 01:55:05;;;;;;;2.93;1.40;;;;;;;;;;5075570;28;20500;-66
2024/02/18 01:57:31;;;;;;;5.90;1.93;;;;;;;;;;5075787;28;20445;-66
2024/02/18 01:59:59;;;;;;;1.70;1.47;;;;;;;;;;5075649;28;20922;-66
2024/02/18 02:02:26;;;;;;;3.57;1.60;;;;;;;;;;5075538;28;20539;-66
2024/02/18 02:04:54;;;;;;;4.33;2.17;;;;;;;;;;5075453;28;20455;-66
2024/02/18 02:07:22;;;;;;;3.57;1.60;;;;;;;;;;5075348;28;20443;-66
2024/02/18 02:09:50;;;;;;;4.20;1.40;;;;;;;;;;5075453;28;20947;-66
2024/02/18 02:12:18;;;;;;;3.33;1.77;;;;;;;;;;5075426;28;20444;-66
2024/02/18 02:14:45;;;;;;;3.17;1.37;;;;;;;;;;5075306;28;20554;-66
2024/02/18 02:17:14;;;;;;;2.17;1.30;;;;;;;;;;5075321;28;20883;-66
2024/02/18 02:19:41;;;;;;;7.93;1.70;;;;;;;;;;5075041;28;20559;-66
2024/02/18 02:22:08;;;;;;;3.00;1.40;;;;;;;;;;5075018;28;20550;-66
2024/02/18 02:24:35;;;;;;;4.43;1.77;;;;;;;;;;5075016;28;20516;-66
2024/02/18 02:27:02;;;;;;;7.13;2.20;;;;;;;;;;5075104;28;20486;-66
2024/02/18 02:29:29;;;;;;;4.40;2.20;;;;;;;;;;5075107;28;20482;-66
2024/02/18 02:31:58;;;;;;;2.53;1.80;;;;;;;;;;5074955;28;20459;-66
2024/02/18 02:34:25;;;;;;;3.20;2.70;;;;;;;;;;5075325;28;20443;-65
2024/02/18 02:36:52;;;;;;;3.27;1.90;;;;;;;;;;5074767;28;20462;-66
2024/02/18 02:39:19;;;;;;;3.70;2.50;;;;;;;;;;5074641;28;20583;-66
2024/02/18 02:41:46;;;;;;;3.70;2.13;;;;;;;;;;5074828;28;20523;-66
2024/02/18 02:44:13;;;;;;;7.53;1.50;;;;;;;;;;5074822;28;20454;-66
2024/02/18 02:46:42;;;;;;;3.03;2.13;;;;;;;;;;5074725;28;20500;-66
2024/02/18 02:49:08;;;;;;;3.20;2.10;;;;;;;;;;5074706;28;20448;-66
2024/02/18 02:51:35;;;;;;;2.73;2.20;;;;;;;;;;5074792;28;21017;-66
2024/02/18 02:54:02;;;;;;;2.13;1.60;;;;;;;;;;5073554;28;20534;-66
2024/02/18 02:56:30;;;;;;;4.93;2.70;;;;;;;;;;5074608;28;20934;-66
2024/02/18 02:58:57;;;;;;;3.53;1.80;;;;;;;;;;5074555;28;20518;-66
2024/02/18 03:01:24;;;;;;;3.23;1.77;;;;;;;;;;5074344;28;21029;-66
2024/02/18 03:03:52;;;;;;;3.33;2.33;;;;;;;;;;5074455;28;20447;-66
2024/02/18 03:06:19;;;;;;;2.33;1.93;;;;;;;;;;5074419;28;20542;-66
2024/02/18 03:08:46;;;;;;;5.80;2.43;;;;;;;;;;5074420;28;20440;-66
2024/02/18 03:11:13;;;;;;;4.07;1.60;;;;;;;;;;5074274;28;20538;-66
2024/02/18 03:13:40;;;;;;;4.47;2.20;;;;;;;;;;5074122;28;20445;-66
2024/02/18 03:16:07;;;;;;;3.00;2.07;;;;;;;;;;5073997;28;20443;-66
2024/02/18 03:18:34;;;;;;;5.90;2.40;;;;;;;;;;5074151;28;20535;-66
2024/02/18 03:21:02;;;;;;;3.73;2.20;;;;;;;;;;5074011;28;20489;-66
2024/02/18 03:23:29;;;;;;;2.90;1.70;;;;;;;;;;5074015;28;20554;-66
2024/02/18 03:25:56;;;;;;;4.73;2.00;;;;;;;;;;5073937;28;20923;-66
2024/02/18 03:28:23;;;;;;;6.37;1.70;;;;;;;;;;5073875;28;20534;-66
2024/02/18 03:30:51;;;;;;;5.37;2.53;;;;;;;;;;5073594;28;20811;-66
2024/02/18 03:33:18;;;;;;;2.23;1.80;;;;;;;;;;5073924;28;20447;-66
2024/02/18 03:35:45;;;;;;;2.07;1.87;;;;;;;;;;5073969;28;20459;-66
2024/02/18 03:38:14;;;;;;;2.33;1.97;;;;;;;;;;5073472;28;20957;-66
2024/02/18 03:40:41;;;;;;;4.27;2.10;;;;;;;;;;5073639;28;20998;-66
2024/02/18 03:43:08;;;;;;;2.97;2.10;;;;;;;;;;5073511;28;20504;-66
2024/02/18 03:45:35;;;;;;;6.83;2.10;;;;;;;;;;5073670;28;20453;-66
2024/02/18 03:48:02;;;;;;;6.93;2.97;;;;;;;;;;5073672;28;20443;-66
2024/02/18 03:50:29;;;;;;;2.90;2.00;;;;;;;;;;5073548;28;20442;-66
2024/02/18 03:52:56;;;;;;;2.67;2.30;;;;;;;;;;5073491;28;20440;-66
2024/02/18 03:55:25;;;;;;;7.70;2.20;;;;;;;;;;5073204;28;21018;-66
2024/02/18 03:57:52;;;;;;;2.80;1.90;;;;;;;;;;5073271;28;20451;-66
2024/02/18 04:00:19;;;;;;;5.47;1.90;;;;;;;;;;5073078;28;20800;-66
2024/02/18 04:02:46;;;;;;;3.13;1.27;;;;;;;;;;5073414;28;20526;-66
2024/02/18 04:05:13;;;;;;;4.90;2.37;;;;;;;;;;5073057;28;20443;-66
2024/02/18 04:07:40;;;;;;;4.93;2.10;;;;;;;;;;5073199;28;20474;-66
2024/02/18 04:10:08;;;;;;;9.07;2.30;;;;;;;;;;5073151;28;20544;-66
2024/02/18 04:12:36;;;;;;;3.50;2.20;;;;;;;;;;5073032;28;20955;-66
2024/02/18 04:15:03;;;;;;;4.37;2.37;;;;;;;;;;5073259;28;20443;-65
2024/02/18 04:17:30;;;;;;;3.27;1.87;;;;;;;;;;5073221;28;20497;-66
2024/02/18 04:19:57;;;;;;;3.17;1.73;;;;;;;;;;5073028;28;20532;-66
2024/02/18 04:22:24;;;;;;;4.40;2.17;;;;;;;;;;5073087;28;20899;-66
2024/02/18 04:24:51;;;;;;;2.23;2.00;;;;;;;;;;5073008;28;20451;-66
2024/02/18 04:27:18;;;;;;;4.50;2.30;;;;;;;;;;5072957;28;20504;-66
2024/02/18 04:29:47;;;;;;;3.43;1.97;;;;;;;;;;5073065;28;20462;-66
2024/02/18 04:32:14;;;;;;;5.83;2.20;;;;;;;;;;5073018;28;20455;-65
2024/02/18 04:34:41;;;;;;;3.13;2.30;;;;;;;;;;5073013;28;20530;-66
2024/02/18 04:37:07;;;;;;;5.13;2.57;;;;;;;;;;5072889;28;20471;-66
2024/02/18 04:39:34;;;;;;;3.43;2.17;;;;;;;;;;5072619;28;20499;-66
2024/02/18 04:42:01;;;;;;;5.60;3.13;;;;;;;;;;5072980;28;20942;-66
2024/02/18 04:44:28;;;;;;;3.40;2.10;;;;;;;;;;5072934;28;20447;-66
2024/02/18 04:46:57;;;;;;;2.27;1.63;;;;;;;;;;5072889;28;20481;-66
2024/02/18 04:49:24;;;;;;;6.50;2.63;;;;;;;;;;5072835;28;21002;-66
2024/02/18 04:51:51;;;;;;;2.57;2.37;;;;;;;;;;5072770;28;20532;-65
2024/02/18 04:54:29;;;;;;;2.23;1.93;;;;;;;;;;5072710;28;20867;-66
2024/02/18 04:57:00;;;;;;;4.43;2.20;;;;;;;;;;5072372;28;20443;-66
2024/02/18 04:59:27;;;;;;;6.13;2.93;;;;;;;;;;5072707;28;20526;-66
2024/02/18 05:01:54;;;;;;;2.23;1.80;;;;;;;;;;5072680;28;20530;-66
2024/02/18 05:04:29;;;;;;;6.30;2.00;;;;;;;;;;5072482;28;20954;-66
2024/02/18 05:06:56;;;;;;;3.63;2.07;;;;;;;;;;5072540;28;20442;-66
2024/02/18 05:09:23;;;;;;;4.50;1.90;;;;;;;;;;5072780;28;20558;-66
2024/02/18 05:11:50;;;;;;;6.03;1.70;;;;;;;;;;5072670;28;20534;-65
2024/02/18 05:14:17;;;;;;;6.53;2.03;;;;;;;;;;5072583;28;20509;-65
2024/02/18 05:16:44;;;;;;;5.10;2.20;;;;;;;;;;5074484;28;20443;-66
2024/02/18 05:19:10;;;;;;;5.10;1.90;;;;;;;;;;5076235;28;20439;-66
2024/02/18 05:21:41;;;;;;;4.80;1.87;;;;;;;;;;5076361;28;20483;-66
2024/02/18 05:24:08;;;;;;;2.47;1.60;;;;;;;;;;5076187;28;20443;-66
2024/02/18 05:26:35;;;;;;;3.43;1.80;;;;;;;;;;5076221;28;20542;-66
2024/02/18 05:29:02;;;;;;;7.43;2.77;;;;;;;;;;5076127;28;20534;-65
2024/02/18 05:31:29;;;;;;;4.43;1.80;;;;;;;;;;5076037;28;20799;-65
2024/02/18 05:33:56;;;;;;;3.17;2.13;;;;;;;;;;5075727;28;20482;-65
2024/02/18 05:36:23;;;;;;;4.73;2.67;;;;;;;;;;5076103;28;20443;-66
2024/02/18 05:38:51;;;;;;;6.90;2.33;;;;;;;;;;5075870;28;20554;-66
2024/02/18 05:41:18;;;;;;;4.00;2.17;;;;;;;;;;5075870;28;20483;-66
2024/02/18 05:43:45;;;;;;;3.57;1.87;;;;;;;;;;5075868;28;20447;-65
2024/02/18 05:46:12;;;;;;;3.47;2.07;;;;;;;;;;5075747;28;20538;-66
2024/02/18 05:48:40;;;;;;;8.50;2.47;;;;;;;;;;5075916;28;20546;-65
2024/02/18 05:51:07;;;;;;;3.57;2.00;;;;;;;;;;5075786;28;20539;-66
2024/02/18 05:53:34;;;;;;;2.90;2.20;;;;;;;;;;5075765;28;20883;-65
2024/02/18 05:56:02;;;;;;;2.27;2.07;;;;;;;;;;5075613;28;20538;-65
2024/02/18 05:58:29;;;;;;;4.60;2.27;;;;;;;;;;5075613;28;20471;-65
2024/02/18 06:00:56;;;;;;;3.33;1.90;;;;;;;;;;5075356;28;20485;-65
2024/02/18 06:03:23;;;;;;;5.20;2.00;;;;;;;;;;5075651;28;20513;-66
2024/02/18 06:05:50;;;;;;;3.23;2.30;;;;;;;;;;5075544;28;20530;-65
2024/02/18 06:08:17;;;;;;;3.33;2.07;;;;;;;;;;5075377;28;20479;-65
2024/02/18 06:10:44;;;;;;;3.63;2.30;;;;;;;;;;5075463;28;20486;-65
2024/02/18 06:13:12;;;;;;;2.53;2.03;;;;;;;;;;5075245;28;20448;-65
2024/02/18 06:15:39;;;;;;;6.20;2.23;;;;;;;;;;5075457;28;20526;-65
2024/02/18 06:18:07;;;;;;;4.93;2.20;;;;;;;;;;5075170;28;20965;-66
2024/02/18 06:20:34;;;;;;;4.03;2.00;;;;;;;;;;5075014;28;20998;-66
2024/02/18 06:23:01;;;;;;;3.40;2.30;;;;;;;;;;5075202;28;20542;-65
2024/02/18 06:25:29;;;;;;;3.53;2.43;;;;;;;;;;5075101;28;20534;-65
2024/02/18 06:27:56;;;;;;;5.53;2.40;;;;;;;;;;5074753;28;20942;-65
2024/02/18 06:30:24;;;;;;;7.07;2.38;;;;;;;;;;5075235;28;20452;-66
2024/02/18 06:32:51;;;;;;;2.23;1.70;;;;;;;;;;5075071;28;20193;-65
2024/02/18 06:35:18;;;;;;;5.37;2.80;;;;;;;;;;5075059;28;20481;-65
2024/02/18 06:37:45;;;;;;;5.70;2.27;;;;;;;;;;5075133;28;20535;-65
2024/02/18 06:40:12;;;;;;;2.27;2.07;;;;;;;;;;5074623;28;20478;-65
2024/02/18 06:42:39;;;;;;;2.43;1.90;;;;;;;;;;5074672;28;20439;-65
2024/02/18 06:45:07;;;;;;;4.33;2.43;;;;;;;;;;5074677;28;21021;-65
2024/02/18 06:47:35;;;;;;;3.90;2.70;;;;;;;;;;5074795;28;20451;-65
2024/02/18 06:50:03;;;;;;;8.60;2.93;;;;;;;;;;5074665;28;20539;-65
2024/02/18 06:52:30;;;;;;;4.13;3.00;;;;;;;;;;5074685;28;20526;-65
2024/02/18 06:54:57;;;;;;;4.03;2.30;;;;;;;;;;5074419;28;20914;-66
2024/02/18 06:57:24;;;;;;;3.43;2.20;;;;;;;;;;5074686;28;20475;-66
2024/02/18 06:59:51;;;;;;;5.77;2.03;;;;;;;;;;5074601;28;20538;-65
2024/02/18 07:02:18;;;;;;;5.23;2.63;;;;;;;;;;5074376;28;20568;-65
2024/02/18 07:04:47;;;;;;;10.60;2.20;;;;;;;;;;5074448;28;20487;-65
2024/02/18 07:07:14;;;;;;;2.83;2.00;;;;;;;;;;5074234;28;20448;-65
2024/02/18 07:09:42;;;;;;;2.40;1.90;;;;;;;;;;5074164;28;20443;-65
2024/02/18 07:12:09;;;;;;;2.77;2.13;;;;;;;;;;5074299;28;20448;-65
2024/02/18 07:14:36;;;;;;;3.73;1.97;;;;;;;;;;5074141;28;20538;-65
2024/02/18 07:17:03;;;;;;;4.77;2.03;;;;;;;;;;5074192;28;20454;-65
2024/02/18 07:19:30;;;;;;;4.30;3.00;;;;;;;;;;5074379;28;20544;-65
2024/02/18 07:21:58;;;;;;;2.97;2.17;;;;;;;;;;5073904;28;20475;-66
2024/02/18 07:24:25;;;;;;;5.73;2.40;;;;;;;;;;5074050;28;20435;-65
2024/02/18 07:26:52;;;;;;;4.53;3.77;;;;;;;;;;5073975;28;20446;-66
2024/02/18 07:29:19;;;;;;;3.67;2.70;;;;;;;;;;5073873;28;20447;-65
2024/02/18 07:31:46;;;;;;;5.83;3.80;;;;;;;;;;5073886;28;20530;-66
2024/02/18 07:34:13;;;;;;;9.67;3.10;;;;;;;;;;5073779;28;20546;-65
2024/02/18 07:36:40;;;;;;;3.03;2.43;;;;;;;;;;5073581;28;20529;-66
2024/02/18 07:39:09;;;;;;;4.03;3.03;;;;;;;;;;5072963;28;20536;-66
2024/02/18 07:41:35;;;;;;;7.10;2.97;;;;;;;;;;5073602;28;20490;-66
2024/02/18 07:44:02;;;;;;;4.97;3.33;;;;;;;;;;5073697;28;20864;-66
2024/02/18 07:46:29;;;;;;;8.50;3.10;;;;;;;;;;5073958;28;20444;-65
2024/02/18 07:48:56;;;;;;;8.40;3.40;;;;;;;;;;5073454;28;20550;-66
2024/02/18 07:51:23;;;;;;;4.57;3.20;;;;;;;;;;5073457;28;20534;-66
2024/02/18 07:53:50;;;;;;;5.00;3.20;;;;;;;;;;5073405;28;20646;-65
2024/02/18 07:56:18;;;;;;;7.10;3.33;;;;;;;;;;5073437;28;20444;-65
2024/02/18 07:58:45;;;;;;;5.30;3.57;;;;;;;;;;5073365;28;21008;-65
2024/02/18 08:01:12;;;;;;;9.47;3.13;;;;;;;;;;5073457;28;20558;-65
2024/02/18 08:03:39;;;;;;;4.70;2.80;;;;;;;;;;5073633;28;20530;-66
2024/02/18 08:06:08;;;;;;;5.50;3.10;;;;;;;;;;5072977;28;20848;-65
2024/02/18 08:08:34;;;;;;;10.87;3.20;;;;;;;;;;5073217;28;20493;-66
2024/02/18 08:11:01;;;;;;;6.00;2.70;;;;;;;;;;5073206;28;20550;-65
2024/02/18 08:13:30;;;;;;;4.13;3.33;;;;;;;;;;5072958;28;20879;-65
2024/02/18 08:15:58;;;;;;;11.10;4.20;;;;;;;;;;5072944;28;20534;-65
2024/02/18 08:18:25;;;;;;;3.87;2.23;;;;;;;;;;5072927;28;20471;-66
2024/02/18 08:20:52;;;;;;;3.47;2.37;;;;;;;;;;5073206;28;20506;-65
2024/02/18 08:23:19;;;;;;;4.93;2.20;;;;;;;;;;5073047;28;20811;-66
2024/02/18 08:25:46;;;;;;;5.83;2.20;;;;;;;;;;5073009;28;20483;-65
2024/02/18 08:28:13;;;;;;;6.50;2.30;;;;;;;;;;5073007;28;20538;-66
2024/02/18 08:30:41;;;;;;;4.83;2.60;;;;;;;;;;5072960;28;20446;-66
2024/02/18 08:33:08;;;;;;;7.87;2.80;;;;;;;;;;5072748;28;20542;-65
2024/02/18 08:35:35;;;;;;;4.23;1.93;;;;;;;;;;5072766;28;20446;-66
2024/02/18 08:38:03;;;;;;;3.43;2.20;;;;;;;;;;5072797;28;20435;-66
2024/02/18 08:40:30;;;;;;;5.73;2.53;;;;;;;;;;5073106;28;20448;-66
2024/02/18 08:42:57;;;;;;;5.93;2.47;;;;;;;;;;5072746;28;20816;-65
2024/02/18 08:45:24;;;;;;;5.60;2.50;;;;;;;;;;5072922;28;20450;-66
2024/02/18 08:47:54;;;;;;;3.83;2.50;;;;;;;;;;5072928;28;20876;-66
2024/02/18 08:50:20;;;;;;;6.10;2.90;;;;;;;;;;5072822;28;20872;-66
2024/02/18 08:52:47;;;;;;;4.50;2.40;;;;;;;;;;5076625;28;20479;-65
2024/02/18 08:55:14;;;;;;;7.13;2.30;;;;;;;;;;5076783;28;20608;-65
2024/02/18 08:57:41;;;;;;;5.80;2.20;;;;;;;;;;5076847;28;21016;-66
2024/02/18 09:00:09;;;;;;;9.27;3.40;;;;;;;;;;5076558;28;20482;-66
2024/02/18 09:02:36;;;;;;;6.20;2.77;;;;;;;;;;5076757;28;20485;-66
2024/02/18 09:05:04;;;;;;;6.37;2.87;;;;;;;;;;5076708;28;20538;-66
2024/02/18 09:07:31;;;;;;;5.47;1.70;;;;;;;;;;5076653;28;20454;-66
2024/02/18 09:09:58;;;;;;;3.83;2.17;;;;;;;;;;5076680;28;20562;-66
2024/02/18 09:12:25;;;;;;;5.67;2.33;;;;;;;;;;5076329;28;20537;-66
2024/02/18 09:14:52;;;;;;;5.30;2.27;;;;;;;;;;5076347;28;20878;-66
2024/02/18 09:17:19;;;;;;;9.00;2.00;;;;;;;;;;5076371;28;20534;-66
2024/02/18 09:19:47;;;;;;;5.83;2.70;;;;;;;;;;5076407;28;20447;-66
2024/02/18 09:22:15;;;;;;;7.50;2.30;;;;;;;;;;5076143;28;20510;-66
2024/02/18 09:24:43;;;;;;;9.93;2.63;;;;;;;;;;5076186;28;20875;-65
2024/02/18 09:27:10;;;;;;;3.10;2.00;;;;;;;;;;5076007;28;20451;-66
2024/02/18 09:29:37;;;;;;;4.00;1.93;;;;;;;;;;5076220;28;20530;-66
2024/02/18 09:32:05;;;;;;;13.83;2.80;;;;;;;;;;5076125;28;20530;-66
2024/02/18 09:34:32;;;;;;;5.33;2.43;;;;;;;;;;5075855;28;21009;-66
2024/02/18 09:36:58;;;;;;;5.93;2.53;;;;;;;;;;5076002;28;20485;-65
2024/02/18 09:39:27;;;;;;;9.13;2.43;;;;;;;;;;5075734;28;20582;-66
2024/02/18 09:41:54;;;;;;;6.63;2.73;;;;;;;;;;5075814;28;20616;-66
2024/02/18 09:44:23;;;;;;;7.10;2.03;;;;;;;;;;5076185;28;20536;-66
2024/02/18 09:46:51;;;;;;;4.63;1.93;;;;;;;;;;5075880;28;20534;-66
2024/02/18 09:49:18;;;;;;;4.90;2.27;;;;;;;;;;5075668;28;20447;-66
2024/02/18 09:51:45;;;;;;;4.87;2.57;;;;;;;;;;5075599;28;20535;-66
2024/02/18 09:54:12;;;;;;;9.10;2.27;;;;;;;;;;5075616;28;20469;-66
2024/02/18 09:56:40;;;;;;;5.73;2.10;;;;;;;;;;5075728;28;20446;-66
2024/02/18 09:59:08;;;;;;;4.43;2.20;;;;;;;;;;5075941;28;20535;-66
2024/02/18 10:01:36;;;;;;;10.50;2.17;;;;;;;;;;5074964;28;20902;-66
2024/02/18 10:04:03;;;;;;;6.67;2.10;;;;;;;;;;5075719;28;20534;-66
2024/02/18 10:06:30;;;;;;;6.63;1.83;;;;;;;;;;5075358;28;20957;-66
2024/02/18 10:08:57;;;;;;;4.60;1.67;;;;;;;;;;5075254;28;21109;-66
2024/02/18 10:11:24;;;;;;;5.27;2.10;;;;;;;;;;5075697;28;20447;-66
2024/02/18 10:13:58;;;;;;;6.83;2.47;;;;;;;;;;5075444;28;20475;-66
2024/02/18 10:16:25;;;;;;;4.20;1.70;;;;;;;;;;5075434;28;20439;-66
2024/02/18 10:18:52;;;;;;;5.20;2.10;;;;;;;;;;5075197;28;20479;-66
2024/02/18 10:21:18;;;;;;;4.13;2.13;;;;;;;;;;5075024;28;20530;-66
2024/02/18 10:23:46;;;;;;;7.33;2.33;;;;;;;;;;5075300;28;20448;-66
2024/02/18 10:26:14;;;;;;;5.33;2.03;;;;;;;;;;5075285;28;20935;-66
2024/02/18 10:28:41;;;;;;;6.37;3.20;;;;;;;;;;5075413;28;20494;-66
2024/02/18 10:31:09;;;;;;;6.77;1.90;;;;;;;;;;5075070;28;20450;-66
2024/02/18 10:33:36;;;;;;;11.10;2.50;;;;;;;;;;5074876;28;20546;-66
2024/02/18 10:36:04;;;;;;;6.40;2.40;;;;;;;;;;5074807;28;20534;-66
2024/02/18 10:38:32;;;;;;;4.90;1.87;;;;;;;;;;5074660;28;20570;-66
2024/02/18 10:41:03;;;;;;;4.20;2.00;;;;;;;;;;5074909;28;20448;-66
2024/02/18 10:43:31;;;;;;;4.93;1.90;;;;;;;;;;5074681;28;20490;-66
2024/02/18 10:45:59;;;;;;;7.67;1.80;;;;;;;;;;5074696;28;20542;-66
2024/02/18 10:48:27;;;;;;;12.43;2.30;;;;;;;;;;5074558;28;20573;-66
2024/02/18 10:50:55;;;;;;;4.77;1.80;;;;;;;;;;5074783;28;20538;-66
2024/02/18 10:53:27;;;;;;;7.83;2.17;;;;;;;;;;5074650;28;20618;-66
2024/02/18 10:55:59;;;;;;;3.80;1.93;;;;;;;;;;5074584;28;20538;-66
2024/02/18 10:58:28;;;;;;;3.63;1.83;;;;;;;;;;5074531;28;20439;-66
2024/02/18 11:00:59;;;;;;;3.83;2.00;;;;;;;;;;5074242;28;20530;-66
2024/02/18 11:03:30;;;;;;;4.80;1.63;;;;;;;;;;5074511;28;20522;-66
2024/02/18 11:05:58;;;;;;;7.30;2.67;;;;;;;;;;5074531;28;20447;-66
2024/02/18 11:08:28;;;;;;;12.57;2.83;;;;;;;;;;5074075;28;20452;-66
2024/02/18 11:10:55;;;;;;;2.43;2.23;;;;;;;;;;5074169;28;20444;-66
2024/02/18 11:13:22;;;;;;;6.67;2.37;;;;;;;;;;5073296;28;20454;-66
2024/02/18 11:15:49;;;;;;;4.93;2.30;;;;;;;;;;5073988;28;20448;-66
2024/02/18 11:18:16;;;;;;;5.00;2.30;;;;;;;;;;5074150;28;20475;-66
2024/02/18 11:20:46;;;;;;;4.00;2.27;;;;;;;;;;5073992;28;20482;-66
2024/02/18 11:23:13;;;;;;;6.07;2.00;;;;;;;;;;5073790;28;20535;-66
2024/02/18 11:25:40;;;;;;;5.50;1.70;;;;;;;;;;5073988;28;20440;-66
2024/02/18 11:28:07;;;;;;;3.83;1.80;;;;;;;;;;5073934;28;21034;-66
2024/02/18 11:30:34;;;;;;;5.97;2.30;;;;;;;;;;5073967;28;20954;-67
2024/02/18 11:33:02;;;;;;;3.87;2.17;;;;;;;;;;5073850;28;20534;-66
2024/02/18 11:35:29;;;;;;;7.10;2.63;;;;;;;;;;5073702;28;20440;-66
2024/02/18 11:37:59;;;;;;;3.77;2.30;;;;;;;;;;5073529;28;20446;-67
2024/02/18 11:40:26;;;;;;;3.20;2.13;;;;;;;;;;5073523;28;21025;-66
2024/02/18 11:42:53;;;;;;;5.60;2.10;;;;;;;;;;5073660;28;20566;-66
2024/02/18 11:45:21;;;;;;;4.53;1.93;;;;;;;;;;5073517;28;20470;-66
2024/02/18 11:47:48;;;;;;;7.20;3.40;;;;;;;;;;5073373;28;20538;-66
2024/02/18 11:50:15;;;;;;;9.90;2.90;;;;;;;;;;5073217;28;20487;-66
2024/02/18 11:52:43;;;;;;;4.13;2.33;;;;;;;;;;5073311;28;20444;-66
2024/02/18 11:55:16;;;;;;;4.27;2.40;;;;;;;;;;5073413;28;20957;-66
2024/02/18 11:57:43;;;;;;;3.67;2.53;;;;;;;;;;5073491;28;20443;-66
2024/02/18 12:00:12;;;;;;;4.80;2.30;;;;;;;;;;5073307;28;20447;-66
2024/02/18 12:02:39;;;;;;;4.87;2.50;;;;;;;;;;5073045;28;20520;-66
2024/02/18 12:05:10;;;;;;;3.50;2.47;;;;;;;;;;5073164;28;20654;-66
2024/02/18 12:07:39;;;;;;;5.40;2.60;;;;;;;;;;5072934;28;20448;-66
2024/02/18 12:10:06;;;;;;;7.70;3.47;;;;;;;;;;5073218;28;20882;-66
2024/02/18 12:12:34;;;;;;;4.90;2.67;;;;;;;;;;5073304;28;20808;-66
2024/02/18 12:15:01;;;;;;;2.77;2.20;;;;;;;;;;5073132;28;20443;-66
2024/02/18 12:17:28;;;;;;;2.67;2.47;;;;;;;;;;5073010;28;20450;-66
2024/02/18 12:19:56;;;;;;;7.17;2.63;;;;;;;;;;5072960;28;20443;-66
2024/02/18 12:22:24;;;;;;;4.37;2.97;;;;;;;;;;5073138;28;20479;-66
2024/02/18 12:24:51;;;;;;;5.90;2.27;;;;;;;;;;5072989;28;20443;-66
2024/02/18 12:27:18;;;;;;;5.57;3.07;;;;;;;;;;5073048;28;20526;-66
2024/02/18 12:29:47;;;;;;;5.30;2.47;;;;;;;;;;5072997;28;20516;-66
2024/02/18 12:32:14;;;;;;;2.77;2.50;;;;;;;;;;5072827;28;20538;-66
2024/02/18 12:34:43;;;;;;;6.03;3.03;;;;;;;;;;5072722;28;20540;-66
2024/02/18 12:37:10;;;;;;;4.60;2.83;;;;;;;;;;5073000;28;20554;-66
2024/02/18 12:39:37;;;;;;;3.40;2.67;;;;;;;;;;5072911;28;20475;-66
2024/02/18 12:42:05;;;;;;;7.07;2.47;;;;;;;;;;5072830;28;20443;-66
2024/02/18 12:44:33;;;;;;;6.50;2.43;;;;;;;;;;5072727;28;20443;-66
2024/02/18 12:47:01;;;;;;;3.73;3.00;;;;;;;;;;5072545;28;20445;-67
2024/02/18 12:49:28;;;;;;;5.10;2.20;;;;;;;;;;5072858;28;20497;-66
2024/02/18 12:52:03;;;;;;;5.67;3.23;;;;;;;;;;5072923;28;20489;-66
2024/02/18 12:54:29;;;;;;;3.37;2.63;;;;;;;;;;5072617;28;20460;-66
2024/02/18 12:56:56;;;;;;;5.18;4.20;;;;;;;;;;5072099;28;20465;-66
2024/02/18 12:59:23;;;;;;;4.40;2.93;;;;;;;;;;5072657;28;20616;-66
2024/02/18 13:01:50;;;;;;;3.47;2.57;;;;;;;;;;5072405;28;20444;-66
2024/02/18 13:04:19;;;;;;;3.30;2.70;;;;;;;;;;5072733;28;21013;-66
2024/02/18 13:06:48;;;;;;;5.57;3.80;;;;;;;;;;5072756;28;20873;-66
2024/02/18 13:09:21;;;;;;;5.43;2.70;;;;;;;;;;5072734;28;20447;-66
2024/02/18 13:11:48;;;;;;;4.70;3.40;;;;;;;;;;5072379;28;20454;-66
2024/02/18 13:14:15;;;;;;;3.70;2.30;;;;;;;;;;5072354;28;20834;-66
2024/02/18 13:16:43;;;;;;;3.80;2.97;;;;;;;;;;5072577;28;20534;-66
2024/02/18 13:19:10;;;;;;;3.00;2.60;;;;;;;;;;5072265;28;20943;-66
2024/02/18 13:21:38;;;;;;;6.10;2.97;;;;;;;;;;5072370;28;20450;-66
2024/02/18 13:24:06;;;;;;;5.17;2.90;;;;;;;;;;5072348;28;20486;-66
2024/02/18 13:26:33;;;;;;;5.00;2.47;;;;;;;;;;5072280;28;20448;-67
2024/02/18 13:29:00;;;;;;;3.70;2.40;;;;;;;;;;5072142;28;20536;-66
2024/02/18 13:31:27;;;;;;;4.10;2.83;;;;;;;;;;5072471;28;20444;-66
2024/02/18 13:33:54;;;;;;;8.17;3.10;;;;;;;;;;5072124;28;20448;-66
2024/02/18 13:36:21;;;;;;;4.27;2.60;;;;;;;;;;5072160;28;20440;-66
2024/02/18 13:38:49;;;;;;;2.83;2.27;;;;;;;;;;5075590;28;20502;-66
2024/02/18 13:41:16;;;;;;;6.07;2.67;;;;;;;;;;5075708;28;20883;-66
2024/02/18 13:43:43;;;;;;;3.93;2.57;;;;;;;;;;5075939;28;20513;-66
2024/02/18 13:46:10;;;;;;;3.83;2.57;;;;;;;;;;5075734;28;20950;-67
2024/02/18 13:48:37;;;;;;;4.70;3.27;;;;;;;;;;5075814;28;20443;-66
2024/02/18 13:51:04;;;;;;;6.17;3.43;;;;;;;;;;5075796;28;20540;-66
2024/02/18 13:53:31;;;;;;;5.43;3.10;;;;;;;;;;5075612;28;20539;-66
2024/02/18 13:55:59;;;;;;;3.70;2.60;;;;;;;;;;5075505;28;20810;-66
2024/02/18 13:58:27;;;;;;;8.23;2.90;;;;;;;;;;5075673;28;20542;-66
2024/02/18 14:00:54;;;;;;;3.73;2.70;;;;;;;;;;5075647;28;20530;-67
2024/02/18 14:03:21;;;;;;;5.87;3.30;;;;;;;;;;5075658;28;20489;-66
2024/02/18 14:05:48;;;;;;;4.20;2.20;;;;;;;;;;5075402;28;20531;-66
2024/02/18 14:08:15;;;;;;;4.33;2.80;;;;;;;;;;5075224;28;20874;-66
2024/02/18 14:10:41;;;;;;;3.50;3.00;;;;;;;;;;5075431;28;20530;-66
2024/02/18 14:13:11;;;;;;;3.77;2.40;;;;;;;;;;5075419;28;20447;-66
2024/02/18 14:15:38;;;;;;;7.27;2.43;;;;;;;;;;5075363;28;20443;-66
2024/02/18 14:18:05;;;;;;;4.00;2.40;;;;;;;;;;5075345;28;20452;-66
2024/02/18 14:20:32;;;;;;;3.20;1.80;;;;;;;;;;5075171;28;20486;-66
2024/02/18 14:22:59;;;;;;;5.23;3.10;;;;;;;;;;5074985;28;20585;-66
2024/02/18 14:25:26;;;;;;;6.23;2.67;;;;;;;;;;5075246;28;20443;-67
2024/02/18 14:27:53;;;;;;;3.27;2.43;;;;;;;;;;5075150;28;20530;-66
2024/02/18 14:30:21;;;;;;;4.63;3.13;;;;;;;;;;5075038;28;20649;-66
2024/02/18 14:32:48;;;;;;;3.90;3.03;;;;;;;;;;5074943;28;20453;-66
2024/02/18 14:35:16;;;;;;;6.73;3.30;;;;;;;;;;5074855;28;21014;-66
2024/02/18 14:37:43;;;;;;;3.63;2.63;;;;;;;;;;5074801;28;20853;-66
2024/02/18 14:40:13;;;;;;;5.00;3.03;;;;;;;;;;5074595;28;20478;-66
2024/02/18 14:42:42;;;;;;;4.20;2.77;;;;;;;;;;5074746;28;20474;-66
2024/02/18 14:45:11;;;;;;;3.53;2.00;;;;;;;;;;5074628;28;20447;-66